sensor_id;sensor_type;location;lat;lon;timestamp;P1;P2;P0
50866;PMS7003;36839;51.946;21.002;2022-07-23T00:01:58;0.00;0.00;0.00
50866;PMS7003;36839;51.946;21.002;2022-07-23T00:04:30;0.00;0.00;0.00
50866;PMS7003;36839;51.946;21.002;2022-07-23T00:06:59;0.00;0.00;0.00
50866;PMS7003;36839;51.946;21.002;2022-07-23T00:09:29;0.00;0.00;0.00
50866;PMS7003;36839;51.946;21.002;2022-07-23T00:11:57;0.00;0.00;0.00
50866;PMS7003;36839;51.946;21.002;2022-07-23T00:14:26;0.00;0.00;0.00
50866;PMS7003;36839;51.946;21.002;2022-07-23T00:16:56;0.00;0.00;0.00
50866;PMS7003;36839;51.946;21.002;2022-07-23T00:19:24;0.00;0.00;0.00
50866;PMS7003;36839;51.946;21.002;2022-07-23T00:21:57;0.00;0.00;0.00
50866;PMS7003;36839;51.946;21.002;2022-07-23T00:24:26;0.00;0.00;0.00
50866;PMS7003;36839;51.946;21.002;2022-07-23T00:26:57;0.00;0.00;0.00
50866;PMS7003;36839;51.946;21.002;2022-07-23T00:29:27;0.00;0.00;0.00
50866;PMS7003;36839;51.946;21.002;2022-07-23T00:31:53;0.00;0.00;0.00
50866;PMS7003;36839;51.946;21.002;2022-07-23T00:34:23;0.00;0.00;0.00
50866;PMS7003;36839;51.946;21.002;2022-07-23T00:36:49;0.00;0.00;0.00
50866;PMS7003;36839;51.946;21.002;2022-07-23T00:39:19;0.00;0.00;0.00
50866;PMS7003;36839;51.946;21.002;2022-07-23T00:41:50;0.00;0.00;0.00
50866;PMS7003;36839;51.946;21.002;2022-07-23T00:44:23;0.00;0.00;0.00
50866;PMS7003;36839;51.946;21.002;2022-07-23T00:46:53;0.00;0.00;0.00
50866;PMS7003;36839;51.946;21.002;2022-07-23T00:49:25;0.00;0.00;0.00
50866;PMS7003;36839;51.946;21.002;2022-07-23T00:51:57;0.00;0.00;0.00
50866;PMS7003;36839;51.946;21.002;2022-07-23T00:54:31;0.00;0.00;0.00
50866;PMS7003;36839;51.946;21.002;2022-07-23T00:57:04;0.00;0.00;0.00
50866;PMS7003;36839;51.946;21.002;2022-07-23T00:59:33;0.00;0.00;0.00
50866;PMS7003;36839;51.946;21.002;2022-07-23T01:02:02;0.00;0.00;0.00
50866;PMS7003;36839;51.946;21.002;2022-07-23T01:04:30;0.00;0.00;0.00
50866;PMS7003;36839;51.946;21.002;2022-07-23T01:06:58;0.00;0.00;0.00
50866;PMS7003;36839;51.946;21.002;2022-07-23T01:09:32;0.00;0.00;0.00
50866;PMS7003;36839;51.946;21.002;2022-07-23T01:12:04;0.00;0.00;0.00
50866;PMS7003;36839;51.946;21.002;2022-07-23T01:14:35;0.00;0.00;0.00
50866;PMS7003;36839;51.946;21.002;2022-07-23T01:17:01;0.00;0.00;0.00
50866;PMS7003;36839;51.946;21.002;2022-07-23T01:19:30;0.00;0.00;0.00
50866;PMS7003;36839;51.946;21.002;2022-07-23T01:21:57;0.00;0.00;0.00
50866;PMS7003;36839;51.946;21.002;2022-07-23T01:24:25;0.00;0.00;0.00
50866;PMS7003;36839;51.946;21.002;2022-07-23T01:26:55;0.00;0.00;0.00
50866;PMS7003;36839;51.946;21.002;2022-07-23T01:29:25;0.00;0.00;0.00
50866;PMS7003;36839;51.946;21.002;2022-07-23T01:31:55;0.00;0.00;0.00
50866;PMS7003;36839;51.946;21.002;2022-07-23T01:34:22;0.00;0.00;0.00
50866;PMS7003;36839;51.946;21.002;2022-07-23T01:36:50;0.00;0.00;0.00
50866;PMS7003;36839;51.946;21.002;2022-07-23T01:39:18;0.00;0.00;0.00
50866;PMS7003;36839;51.946;21.002;2022-07-23T01:41:45;0.00;0.00;0.00
50866;PMS7003;36839;51.946;21.002;2022-07-23T01:44:14;0.00;0.00;0.00
50866;PMS7003;36839;51.946;21.002;2022-07-23T01:46:42;0.00;0.00;0.00
50866;PMS7003;36839;51.946;21.002;2022-07-23T01:49:12;0.00;0.00;0.00
50866;PMS7003;36839;51.946;21.002;2022-07-23T01:51:43;0.00;0.00;0.00
50866;PMS7003;36839;51.946;21.002;2022-07-23T01:54:30;0.00;0.00;0.00
50866;PMS7003;36839;51.946;21.002;2022-07-23T01:57:00;0.00;0.00;0.00
50866;PMS7003;36839;51.946;21.002;2022-07-23T01:59:29;0.00;0.00;0.00
50866;PMS7003;36839;51.946;21.002;2022-07-23T02:01:57;0.00;0.00;0.00
50866;PMS7003;36839;51.946;21.002;2022-07-23T02:04:24;0.00;0.00;0.00
50866;PMS7003;36839;51.946;21.002;2022-07-23T02:06:56;0.00;0.00;0.00
50866;PMS7003;36839;51.946;21.002;2022-07-23T02:09:24;0.00;0.00;0.00
50866;PMS7003;36839;51.946;21.002;2022-07-23T02:11:52;0.00;0.00;0.00
50866;PMS7003;36839;51.946;21.002;2022-07-23T02:14:18;0.00;0.00;0.00
50866;PMS7003;36839;51.946;21.002;2022-07-23T02:16:48;0.00;0.00;0.00
50866;PMS7003;36839;51.946;21.002;2022-07-23T02:19:18;0.00;0.00;0.00
50866;PMS7003;36839;51.946;21.002;2022-07-23T02:21:49;0.00;0.00;0.00
50866;PMS7003;36839;51.946;21.002;2022-07-23T02:24:17;4.00;4.00;4.00
50866;PMS7003;36839;51.946;21.002;2022-07-23T02:26:46;0.00;0.00;0.00
50866;PMS7003;36839;51.946;21.002;2022-07-23T02:29:13;0.00;0.00;0.00
50866;PMS7003;36839;51.946;21.002;2022-07-23T02:31:44;0.00;0.00;0.00
50866;PMS7003;36839;51.946;21.002;2022-07-23T02:34:12;0.00;0.00;0.00
50866;PMS7003;36839;51.946;21.002;2022-07-23T02:36:39;0.00;0.00;0.00
50866;PMS7003;36839;51.946;21.002;2022-07-23T02:39:09;0.00;0.00;0.00
50866;PMS7003;36839;51.946;21.002;2022-07-23T02:41:37;0.00;0.00;0.00
50866;PMS7003;36839;51.946;21.002;2022-07-23T02:44:06;0.00;0.00;0.00
50866;PMS7003;36839;51.946;21.002;2022-07-23T02:46:36;0.00;0.00;0.00
50866;PMS7003;36839;51.946;21.002;2022-07-23T02:49:07;0.00;0.00;0.00
50866;PMS7003;36839;51.946;21.002;2022-07-23T02:51:37;0.00;0.00;0.00
50866;PMS7003;36839;51.946;21.002;2022-07-23T02:54:09;1.50;1.50;1.50
50866;PMS7003;36839;51.946;21.002;2022-07-23T02:56:36;7.50;7.50;3.00
50866;PMS7003;36839;51.946;21.002;2022-07-23T02:59:06;31.75;26.00;17.50
50866;PMS7003;36839;51.946;21.002;2022-07-23T03:01:37;32.75;32.75;24.50
50866;PMS7003;36839;51.946;21.002;2022-07-23T03:04:07;33.50;29.50;21.00
50866;PMS7003;36839;51.946;21.002;2022-07-23T03:06:37;39.25;31.25;21.50
50866;PMS7003;36839;51.946;21.002;2022-07-23T03:09:07;42.50;34.75;23.50
50866;PMS7003;36839;51.946;21.002;2022-07-23T03:11:37;32.00;29.75;21.75
50866;PMS7003;36839;51.946;21.002;2022-07-23T03:14:05;33.00;28.75;20.50
50866;PMS7003;36839;51.946;21.002;2022-07-23T03:16:32;35.50;31.50;22.00
50866;PMS7003;36839;51.946;21.002;2022-07-23T03:19:02;32.75;28.00;21.00
50866;PMS7003;36839;51.946;21.002;2022-07-23T03:21:28;30.75;24.50;17.00
50866;PMS7003;36839;51.946;21.002;2022-07-23T03:23:59;29.75;27.75;20.25
50866;PMS7003;36839;51.946;21.002;2022-07-23T03:26:29;27.00;24.25;18.50
50866;PMS7003;36839;51.946;21.002;2022-07-23T03:28:59;27.00;23.50;16.75
50866;PMS7003;36839;51.946;21.002;2022-07-23T03:31:30;28.00;21.25;15.00
50866;PMS7003;36839;51.946;21.002;2022-07-23T03:34:00;33.00;31.75;22.25
50866;PMS7003;36839;51.946;21.002;2022-07-23T03:36:30;37.50;31.25;21.75
50866;PMS7003;36839;51.946;21.002;2022-07-23T03:38:58;34.25;31.25;21.25
50866;PMS7003;36839;51.946;21.002;2022-07-23T03:41:24;31.00;27.25;18.00
50866;PMS7003;36839;51.946;21.002;2022-07-23T03:43:53;32.00;28.75;20.00
50866;PMS7003;36839;51.946;21.002;2022-07-23T03:46:23;29.75;21.75;16.00
50866;PMS7003;36839;51.946;21.002;2022-07-23T03:48:54;25.00;23.00;16.50
50866;PMS7003;36839;51.946;21.002;2022-07-23T03:51:23;24.75;18.75;14.25
50866;PMS7003;36839;51.946;21.002;2022-07-23T03:53:52;28.25;28.25;19.75
50866;PMS7003;36839;51.946;21.002;2022-07-23T03:56:25;26.50;22.75;16.50
50866;PMS7003;36839;51.946;21.002;2022-07-23T03:58:53;28.25;24.75;17.00
50866;PMS7003;36839;51.946;21.002;2022-07-23T04:01:28;26.75;23.75;17.50
50866;PMS7003;36839;51.946;21.002;2022-07-23T04:03:57;34.75;26.75;18.00
50866;PMS7003;36839;51.946;21.002;2022-07-23T04:06:26;26.75;22.50;16.25
50866;PMS7003;36839;51.946;21.002;2022-07-23T04:08:55;33.75;32.25;22.25
50866;PMS7003;36839;51.946;21.002;2022-07-23T04:11:27;41.25;35.00;22.75
50866;PMS7003;36839;51.946;21.002;2022-07-23T04:13:54;30.50;26.50;20.00
50866;PMS7003;36839;51.946;21.002;2022-07-23T04:16:22;26.25;24.00;19.75
50866;PMS7003;36839;51.946;21.002;2022-07-23T04:18:51;35.25;26.00;18.75
50866;PMS7003;36839;51.946;21.002;2022-07-23T04:21:19;26.75;26.75;19.75
50866;PMS7003;36839;51.946;21.002;2022-07-23T04:23:47;32.00;25.00;18.75
50866;PMS7003;36839;51.946;21.002;2022-07-23T04:26:14;27.25;24.75;18.00
50866;PMS7003;36839;51.946;21.002;2022-07-23T04:28:43;29.00;25.25;16.00
50866;PMS7003;36839;51.946;21.002;2022-07-23T04:31:14;31.00;31.00;21.75
50866;PMS7003;36839;51.946;21.002;2022-07-23T04:33:42;22.60;22.40;15.20
50866;PMS7003;36839;51.946;21.002;2022-07-23T04:36:11;25.25;24.25;18.50
50866;PMS7003;36839;51.946;21.002;2022-07-23T04:38:41;29.50;26.25;17.25
50866;PMS7003;36839;51.946;21.002;2022-07-23T04:41:10;36.00;32.00;21.25
50866;PMS7003;36839;51.946;21.002;2022-07-23T04:43:38;29.00;28.75;20.75
50866;PMS7003;36839;51.946;21.002;2022-07-23T04:46:08;32.75;29.25;19.50
50866;PMS7003;36839;51.946;21.002;2022-07-23T04:48:40;34.00;27.00;18.50
50866;PMS7003;36839;51.946;21.002;2022-07-23T04:51:10;31.25;26.75;18.25
50866;PMS7003;36839;51.946;21.002;2022-07-23T04:53:40;33.75;30.75;18.50
50866;PMS7003;36839;51.946;21.002;2022-07-23T04:56:09;25.75;21.50;16.25
50866;PMS7003;36839;51.946;21.002;2022-07-23T04:58:40;33.00;31.50;21.25
50866;PMS7003;36839;51.946;21.002;2022-07-23T05:01:11;0.00;0.00;0.00
50866;PMS7003;36839;51.946;21.002;2022-07-23T05:03:42;0.00;0.00;0.00
50866;PMS7003;36839;51.946;21.002;2022-07-23T05:06:09;0.50;0.50;0.50
50866;PMS7003;36839;51.946;21.002;2022-07-23T05:08:35;1.00;1.00;0.25
50866;PMS7003;36839;51.946;21.002;2022-07-23T05:11:03;0.00;0.00;0.00
50866;PMS7003;36839;51.946;21.002;2022-07-23T05:13:34;2.25;2.25;2.25
50866;PMS7003;36839;51.946;21.002;2022-07-23T05:16:02;0.00;0.00;0.00
50866;PMS7003;36839;51.946;21.002;2022-07-23T05:18:32;0.00;0.00;0.00
50866;PMS7003;36839;51.946;21.002;2022-07-23T05:21:00;0.00;0.00;0.00
50866;PMS7003;36839;51.946;21.002;2022-07-23T05:23:30;0.00;0.00;0.00
50866;PMS7003;36839;51.946;21.002;2022-07-23T05:26:02;0.00;0.00;0.00
50866;PMS7003;36839;51.946;21.002;2022-07-23T05:28:31;0.00;0.00;0.00
50866;PMS7003;36839;51.946;21.002;2022-07-23T05:30:59;9.00;9.00;9.00
50866;PMS7003;36839;51.946;21.002;2022-07-23T05:33:28;0.00;0.00;0.00
50866;PMS7003;36839;51.946;21.002;2022-07-23T05:35:59;0.00;0.00;0.00
50866;PMS7003;36839;51.946;21.002;2022-07-23T05:38:29;0.00;0.00;0.00
50866;PMS7003;36839;51.946;21.002;2022-07-23T05:40:59;0.00;0.00;0.00
50866;PMS7003;36839;51.946;21.002;2022-07-23T05:43:28;0.00;0.00;0.00
50866;PMS7003;36839;51.946;21.002;2022-07-23T05:45:58;0.00;0.00;0.00
50866;PMS7003;36839;51.946;21.002;2022-07-23T05:48:29;0.00;0.00;0.00
50866;PMS7003;36839;51.946;21.002;2022-07-23T05:50:59;0.00;0.00;0.00
50866;PMS7003;36839;51.946;21.002;2022-07-23T05:53:28;0.00;0.00;0.00
50866;PMS7003;36839;51.946;21.002;2022-07-23T05:55:58;0.00;0.00;0.00
50866;PMS7003;36839;51.946;21.002;2022-07-23T05:58:26;0.00;0.00;0.00
50866;PMS7003;36839;51.946;21.002;2022-07-23T06:00:54;0.00;0.00;0.00
50866;PMS7003;36839;51.946;21.002;2022-07-23T06:03:24;0.00;0.00;0.00
50866;PMS7003;36839;51.946;21.002;2022-07-23T06:05:57;0.00;0.00;0.00
50866;PMS7003;36839;51.946;21.002;2022-07-23T06:08:26;0.00;0.00;0.00
50866;PMS7003;36839;51.946;21.002;2022-07-23T06:11:01;0.00;0.00;0.00
50866;PMS7003;36839;51.946;21.002;2022-07-23T06:13:35;0.00;0.00;0.00
50866;PMS7003;36839;51.946;21.002;2022-07-23T06:16:06;0.00;0.00;0.00
50866;PMS7003;36839;51.946;21.002;2022-07-23T06:18:34;0.00;0.00;0.00
50866;PMS7003;36839;51.946;21.002;2022-07-23T06:21:05;0.00;0.00;0.00
50866;PMS7003;36839;51.946;21.002;2022-07-23T06:23:34;0.00;0.00;0.00
50866;PMS7003;36839;51.946;21.002;2022-07-23T06:26:07;0.00;0.00;0.00
50866;PMS7003;36839;51.946;21.002;2022-07-23T06:28:35;0.00;0.00;0.00
50866;PMS7003;36839;51.946;21.002;2022-07-23T06:31:07;0.00;0.00;0.00
50866;PMS7003;36839;51.946;21.002;2022-07-23T06:33:36;0.00;0.00;0.00
50866;PMS7003;36839;51.946;21.002;2022-07-23T06:36:04;0.00;0.00;0.00
50866;PMS7003;36839;51.946;21.002;2022-07-23T06:38:36;0.00;0.00;0.00
50866;PMS7003;36839;51.946;21.002;2022-07-23T06:41:04;3.00;3.00;3.00
50866;PMS7003;36839;51.946;21.002;2022-07-23T06:43:36;0.00;0.00;0.00
50866;PMS7003;36839;51.946;21.002;2022-07-23T06:46:05;0.00;0.00;0.00
50866;PMS7003;36839;51.946;21.002;2022-07-23T06:48:35;0.00;0.00;0.00
50866;PMS7003;36839;51.946;21.002;2022-07-23T06:51:05;0.00;0.00;0.00
50866;PMS7003;36839;51.946;21.002;2022-07-23T06:53:36;0.00;0.00;0.00
50866;PMS7003;36839;51.946;21.002;2022-07-23T06:56:08;0.00;0.00;0.00
50866;PMS7003;36839;51.946;21.002;2022-07-23T06:58:38;0.00;0.00;0.00
50866;PMS7003;36839;51.946;21.002;2022-07-23T07:01:05;0.00;0.00;0.00
50866;PMS7003;36839;51.946;21.002;2022-07-23T07:03:34;0.00;0.00;0.00
50866;PMS7003;36839;51.946;21.002;2022-07-23T07:06:06;0.00;0.00;0.00
50866;PMS7003;36839;51.946;21.002;2022-07-23T07:08:39;1.00;1.00;1.00
50866;PMS7003;36839;51.946;21.002;2022-07-23T07:11:08;0.00;0.00;0.00
50866;PMS7003;36839;51.946;21.002;2022-07-23T07:13:34;0.00;0.00;0.00
50866;PMS7003;36839;51.946;21.002;2022-07-23T07:16:03;0.00;0.00;0.00
50866;PMS7003;36839;51.946;21.002;2022-07-23T07:18:32;0.00;0.00;0.00
50866;PMS7003;36839;51.946;21.002;2022-07-23T07:20:58;0.00;0.00;0.00
50866;PMS7003;36839;51.946;21.002;2022-07-23T07:23:26;0.00;0.00;0.00
50866;PMS7003;36839;51.946;21.002;2022-07-23T07:25:56;3.00;3.00;1.00
50866;PMS7003;36839;51.946;21.002;2022-07-23T07:28:33;0.00;0.00;0.00
50866;PMS7003;36839;51.946;21.002;2022-07-23T07:31:02;0.00;0.00;0.00
50866;PMS7003;36839;51.946;21.002;2022-07-23T07:33:35;0.00;0.00;0.00
50866;PMS7003;36839;51.946;21.002;2022-07-23T07:36:03;0.00;0.00;0.00
50866;PMS7003;36839;51.946;21.002;2022-07-23T07:38:31;0.00;0.00;0.00
50866;PMS7003;36839;51.946;21.002;2022-07-23T07:40:58;0.00;0.00;0.00
50866;PMS7003;36839;51.946;21.002;2022-07-23T07:43:29;0.00;0.00;0.00
50866;PMS7003;36839;51.946;21.002;2022-07-23T07:45:57;0.00;0.00;0.00
50866;PMS7003;36839;51.946;21.002;2022-07-23T07:48:27;0.00;0.00;0.00
50866;PMS7003;36839;51.946;21.002;2022-07-23T07:50:56;0.00;0.00;0.00
50866;PMS7003;36839;51.946;21.002;2022-07-23T07:53:26;0.00;0.00;0.00
50866;PMS7003;36839;51.946;21.002;2022-07-23T07:55:56;0.00;0.00;0.00
50866;PMS7003;36839;51.946;21.002;2022-07-23T07:58:26;0.00;0.00;0.00
50866;PMS7003;36839;51.946;21.002;2022-07-23T08:00:54;0.00;0.00;0.00
50866;PMS7003;36839;51.946;21.002;2022-07-23T08:03:28;0.00;0.00;0.00
50866;PMS7003;36839;51.946;21.002;2022-07-23T08:05:59;0.00;0.00;0.00
50866;PMS7003;36839;51.946;21.002;2022-07-23T08:08:29;0.00;0.00;0.00
50866;PMS7003;36839;51.946;21.002;2022-07-23T08:11:00;0.00;0.00;0.00
50866;PMS7003;36839;51.946;21.002;2022-07-23T08:13:28;0.00;0.00;0.00
50866;PMS7003;36839;51.946;21.002;2022-07-23T08:15:58;0.00;0.00;0.00
50866;PMS7003;36839;51.946;21.002;2022-07-23T08:18:26;0.00;0.00;0.00
50866;PMS7003;36839;51.946;21.002;2022-07-23T08:20:55;0.00;0.00;0.00
50866;PMS7003;36839;51.946;21.002;2022-07-23T08:23:24;0.00;0.00;0.00
50866;PMS7003;36839;51.946;21.002;2022-07-23T08:25:55;0.00;0.00;0.00
50866;PMS7003;36839;51.946;21.002;2022-07-23T08:28:26;0.25;0.00;0.00
50866;PMS7003;36839;51.946;21.002;2022-07-23T08:30:54;0.00;0.00;0.00
50866;PMS7003;36839;51.946;21.002;2022-07-23T08:33:22;0.00;0.00;0.00
50866;PMS7003;36839;51.946;21.002;2022-07-23T08:35:52;0.00;0.00;0.00
50866;PMS7003;36839;51.946;21.002;2022-07-23T08:38:19;0.00;0.00;0.00
50866;PMS7003;36839;51.946;21.002;2022-07-23T08:40:49;0.00;0.00;0.00
50866;PMS7003;36839;51.946;21.002;2022-07-23T08:43:20;0.00;0.00;0.00
50866;PMS7003;36839;51.946;21.002;2022-07-23T08:45:56;1.00;1.00;1.00
50866;PMS7003;36839;51.946;21.002;2022-07-23T08:48:29;0.00;0.00;0.00
50866;PMS7003;36839;51.946;21.002;2022-07-23T08:50:58;0.00;0.00;0.00
50866;PMS7003;36839;51.946;21.002;2022-07-23T08:53:30;0.00;0.00;0.00
50866;PMS7003;36839;51.946;21.002;2022-07-23T08:56:03;0.00;0.00;0.00
50866;PMS7003;36839;51.946;21.002;2022-07-23T08:58:33;0.00;0.00;0.00
50866;PMS7003;36839;51.946;21.002;2022-07-23T09:01:03;0.00;0.00;0.00
50866;PMS7003;36839;51.946;21.002;2022-07-23T09:03:33;0.00;0.00;0.00
50866;PMS7003;36839;51.946;21.002;2022-07-23T09:06:06;0.00;0.00;0.00
50866;PMS7003;36839;51.946;21.002;2022-07-23T09:08:38;0.00;0.00;0.00
50866;PMS7003;36839;51.946;21.002;2022-07-23T09:11:11;0.00;0.00;0.00
50866;PMS7003;36839;51.946;21.002;2022-07-23T09:13:48;0.00;0.00;0.00
50866;PMS7003;36839;51.946;21.002;2022-07-23T09:16:25;0.00;0.00;0.00
50866;PMS7003;36839;51.946;21.002;2022-07-23T09:18:57;0.00;0.00;0.00
50866;PMS7003;36839;51.946;21.002;2022-07-23T09:21:37;0.00;0.00;0.00
50866;PMS7003;36839;51.946;21.002;2022-07-23T09:24:03;0.00;0.00;0.00
50866;PMS7003;36839;51.946;21.002;2022-07-23T09:26:38;0.00;0.00;0.00
50866;PMS7003;36839;51.946;21.002;2022-07-23T09:29:19;0.00;0.00;0.00
50866;PMS7003;36839;51.946;21.002;2022-07-23T09:32:00;0.00;0.00;0.00
50866;PMS7003;36839;51.946;21.002;2022-07-23T09:34:32;0.00;0.00;0.00
50866;PMS7003;36839;51.946;21.002;2022-07-23T09:37:19;0.00;0.00;0.00
50866;PMS7003;36839;51.946;21.002;2022-07-23T09:39:45;0.00;0.00;0.00
50866;PMS7003;36839;51.946;21.002;2022-07-23T09:42:20;0.00;0.00;0.00
50866;PMS7003;36839;51.946;21.002;2022-07-23T09:44:52;1.00;1.00;1.00
50866;PMS7003;36839;51.946;21.002;2022-07-23T09:47:26;0.00;0.00;0.00
50866;PMS7003;36839;51.946;21.002;2022-07-23T09:49:59;0.00;0.00;0.00
50866;PMS7003;36839;51.946;21.002;2022-07-23T09:52:47;0.00;0.00;0.00
50866;PMS7003;36839;51.946;21.002;2022-07-23T09:55:15;0.00;0.00;0.00
50866;PMS7003;36839;51.946;21.002;2022-07-23T09:57:44;0.00;0.00;0.00
50866;PMS7003;36839;51.946;21.002;2022-07-23T10:00:19;0.00;0.00;0.00
50866;PMS7003;36839;51.946;21.002;2022-07-23T10:02:47;0.00;0.00;0.00
50866;PMS7003;36839;51.946;21.002;2022-07-23T10:05:21;0.00;0.00;0.00
50866;PMS7003;36839;51.946;21.002;2022-07-23T10:07:53;0.00;0.00;0.00
50866;PMS7003;36839;51.946;21.002;2022-07-23T10:10:26;0.00;0.00;0.00
50866;PMS7003;36839;51.946;21.002;2022-07-23T10:13:02;0.00;0.00;0.00
50866;PMS7003;36839;51.946;21.002;2022-07-23T10:15:52;2.50;1.75;1.00
50866;PMS7003;36839;51.946;21.002;2022-07-23T10:18:21;20.00;17.80;14.80
50866;PMS7003;36839;51.946;21.002;2022-07-23T10:20:51;21.00;18.00;14.40
50866;PMS7003;36839;51.946;21.002;2022-07-23T10:23:28;17.20;17.00;13.80
50866;PMS7003;36839;51.946;21.002;2022-07-23T10:26:19;26.80;19.80;14.60
50866;PMS7003;36839;51.946;21.002;2022-07-23T10:34:35;19.50;17.75;13.50
50866;PMS7003;36839;51.946;21.002;2022-07-23T10:37:12;21.80;18.80;14.00
50866;PMS7003;36839;51.946;21.002;2022-07-23T10:39:37;17.80;17.80;14.40
50866;PMS7003;36839;51.946;21.002;2022-07-23T10:42:08;19.20;18.20;13.60
50866;PMS7003;36839;51.946;21.002;2022-07-23T10:44:41;24.20;20.20;14.80
50866;PMS7003;36839;51.946;21.002;2022-07-23T10:47:27;20.80;19.60;14.00
50866;PMS7003;36839;51.946;21.002;2022-07-23T10:50:24;20.25;18.50;15.00
50866;PMS7003;36839;51.946;21.002;2022-07-23T10:55:49;20.00;17.00;13.60
50866;PMS7003;36839;51.946;21.002;2022-07-23T10:58:20;21.00;21.00;15.40
50866;PMS7003;36839;51.946;21.002;2022-07-23T11:00:50;19.00;18.20;14.80
50866;PMS7003;36839;51.946;21.002;2022-07-23T11:03:32;26.20;22.60;16.00
50866;PMS7003;36839;51.946;21.002;2022-07-23T11:06:06;19.20;18.80;13.20
50866;PMS7003;36839;51.946;21.002;2022-07-23T11:08:34;18.60;17.00;13.40
50866;PMS7003;36839;51.946;21.002;2022-07-23T11:13:40;23.40;18.40;14.20
50866;PMS7003;36839;51.946;21.002;2022-07-23T11:16:17;24.20;20.80;15.80
50866;PMS7003;36839;51.946;21.002;2022-07-23T11:24:19;22.60;20.60;15.20
50866;PMS7003;36839;51.946;21.002;2022-07-23T11:26:49;22.00;19.80;14.40
50866;PMS7003;36839;51.946;21.002;2022-07-23T11:37:11;24.00;21.00;14.50
50866;PMS7003;36839;51.946;21.002;2022-07-23T11:39:43;20.00;17.80;14.80
50866;PMS7003;36839;51.946;21.002;2022-07-23T11:42:18;20.80;18.20;14.40
50866;PMS7003;36839;51.946;21.002;2022-07-23T11:44:49;24.00;22.20;17.00
50866;PMS7003;36839;51.946;21.002;2022-07-23T11:47:20;22.40;21.40;15.00
50866;PMS7003;36839;51.946;21.002;2022-07-23T11:49:52;26.80;22.20;15.40
50866;PMS7003;36839;51.946;21.002;2022-07-23T11:52:28;21.40;21.40;15.80
50866;PMS7003;36839;51.946;21.002;2022-07-23T11:54:56;20.40;20.40;15.60
50866;PMS7003;36839;51.946;21.002;2022-07-23T11:57:27;20.00;17.80;14.20
50866;PMS7003;36839;51.946;21.002;2022-07-23T11:59:57;22.40;19.20;15.20
50866;PMS7003;36839;51.946;21.002;2022-07-23T12:02:29;19.00;17.80;13.80
50866;PMS7003;36839;51.946;21.002;2022-07-23T12:04:58;15.00;13.60;11.60
50866;PMS7003;36839;51.946;21.002;2022-07-23T12:07:27;20.80;18.40;13.60
50866;PMS7003;36839;51.946;21.002;2022-07-23T12:10:03;19.60;18.60;13.80
50866;PMS7003;36839;51.946;21.002;2022-07-23T12:12:37;22.60;20.00;13.40
50866;PMS7003;36839;51.946;21.002;2022-07-23T12:15:16;17.20;16.20;12.20
50866;PMS7003;36839;51.946;21.002;2022-07-23T12:17:43;20.20;20.20;14.60
50866;PMS7003;36839;51.946;21.002;2022-07-23T12:20:21;19.40;18.80;14.40
50866;PMS7003;36839;51.946;21.002;2022-07-23T12:22:56;24.60;21.20;16.20
50866;PMS7003;36839;51.946;21.002;2022-07-23T12:25:30;21.60;18.80;15.80
50866;PMS7003;36839;51.946;21.002;2022-07-23T12:28:07;18.50;18.00;14.75
50866;PMS7003;36839;51.946;21.002;2022-07-23T12:30:38;20.20;19.80;15.40
50866;PMS7003;36839;51.946;21.002;2022-07-23T12:33:11;22.60;20.40;15.60
50866;PMS7003;36839;51.946;21.002;2022-07-23T12:35:45;20.60;18.60;14.40
50866;PMS7003;36839;51.946;21.002;2022-07-23T12:38:15;17.20;17.20;14.60
50866;PMS7003;36839;51.946;21.002;2022-07-23T12:40:59;19.00;18.60;14.60
50866;PMS7003;36839;51.946;21.002;2022-07-23T12:43:31;18.20;18.20;13.60
50866;PMS7003;36839;51.946;21.002;2022-07-23T12:46:11;20.40;19.00;14.40
50866;PMS7003;36839;51.946;21.002;2022-07-23T12:51:29;17.40;17.20;13.40
50866;PMS7003;36839;51.946;21.002;2022-07-23T12:56:37;20.20;18.40;15.00
50866;PMS7003;36839;51.946;21.002;2022-07-23T12:59:11;21.60;21.60;14.20
50866;PMS7003;36839;51.946;21.002;2022-07-23T13:01:45;18.00;17.00;14.20
50866;PMS7003;36839;51.946;21.002;2022-07-23T13:04:20;22.20;18.60;12.40
50866;PMS7003;36839;51.946;21.002;2022-07-23T13:06:50;19.80;17.20;12.80
50866;PMS7003;36839;51.946;21.002;2022-07-23T13:09:28;21.00;18.80;13.20
50866;PMS7003;36839;51.946;21.002;2022-07-23T13:11:56;26.60;17.80;12.60
50866;PMS7003;36839;51.946;21.002;2022-07-23T13:14:27;17.20;17.20;13.40
50866;PMS7003;36839;51.946;21.002;2022-07-23T13:16:55;0.00;0.00;0.00
50866;PMS7003;36839;51.946;21.002;2022-07-23T13:19:27;0.00;0.00;0.00
50866;PMS7003;36839;51.946;21.002;2022-07-23T13:21:56;0.00;0.00;0.00
50866;PMS7003;36839;51.946;21.002;2022-07-23T13:24:27;0.00;0.00;0.00
50866;PMS7003;36839;51.946;21.002;2022-07-23T13:26:55;0.25;0.25;0.25
50866;PMS7003;36839;51.946;21.002;2022-07-23T13:29:24;0.00;0.00;0.00
50866;PMS7003;36839;51.946;21.002;2022-07-23T13:31:54;0.00;0.00;0.00
50866;PMS7003;36839;51.946;21.002;2022-07-23T13:34:24;0.00;0.00;0.00
50866;PMS7003;36839;51.946;21.002;2022-07-23T13:36:54;0.00;0.00;0.00
50866;PMS7003;36839;51.946;21.002;2022-07-23T13:39:24;0.00;0.00;0.00
50866;PMS7003;36839;51.946;21.002;2022-07-23T13:41:58;0.00;0.00;0.00
50866;PMS7003;36839;51.946;21.002;2022-07-23T13:44:28;0.00;0.00;0.00
50866;PMS7003;36839;51.946;21.002;2022-07-23T13:46:56;0.25;0.25;0.25
50866;PMS7003;36839;51.946;21.002;2022-07-23T13:49:25;1.00;1.00;1.00
50866;PMS7003;36839;51.946;21.002;2022-07-23T13:51:55;0.00;0.00;0.00
50866;PMS7003;36839;51.946;21.002;2022-07-23T13:54:25;0.00;0.00;0.00
50866;PMS7003;36839;51.946;21.002;2022-07-23T13:56:53;0.00;0.00;0.00
50866;PMS7003;36839;51.946;21.002;2022-07-23T13:59:21;1.00;1.00;1.00
50866;PMS7003;36839;51.946;21.002;2022-07-23T14:01:52;0.00;0.00;0.00
50866;PMS7003;36839;51.946;21.002;2022-07-23T14:04:22;0.00;0.00;0.00
50866;PMS7003;36839;51.946;21.002;2022-07-23T14:06:52;0.00;0.00;0.00
50866;PMS7003;36839;51.946;21.002;2022-07-23T14:09:24;0.00;0.00;0.00
50866;PMS7003;36839;51.946;21.002;2022-07-23T14:11:52;2.50;2.50;1.50
50866;PMS7003;36839;51.946;21.002;2022-07-23T14:14:19;0.00;0.00;0.00
50866;PMS7003;36839;51.946;21.002;2022-07-23T14:16:51;6.75;6.75;3.00
50866;PMS7003;36839;51.946;21.002;2022-07-23T14:19:21;0.00;0.00;0.00
50866;PMS7003;36839;51.946;21.002;2022-07-23T14:21:53;0.00;0.00;0.00
50866;PMS7003;36839;51.946;21.002;2022-07-23T14:24:23;0.00;0.00;0.00
50866;PMS7003;36839;51.946;21.002;2022-07-23T14:26:51;0.00;0.00;0.00
50866;PMS7003;36839;51.946;21.002;2022-07-23T14:29:21;0.00;0.00;0.00
50866;PMS7003;36839;51.946;21.002;2022-07-23T14:31:52;0.00;0.00;0.00
50866;PMS7003;36839;51.946;21.002;2022-07-23T14:34:23;0.00;0.00;0.00
50866;PMS7003;36839;51.946;21.002;2022-07-23T14:36:52;0.00;0.00;0.00
50866;PMS7003;36839;51.946;21.002;2022-07-23T14:39:19;0.00;0.00;0.00
50866;PMS7003;36839;51.946;21.002;2022-07-23T14:41:50;0.00;0.00;0.00
50866;PMS7003;36839;51.946;21.002;2022-07-23T14:44:21;0.00;0.00;0.00
50866;PMS7003;36839;51.946;21.002;2022-07-23T14:46:51;1.75;0.00;0.00
50866;PMS7003;36839;51.946;21.002;2022-07-23T14:49:20;0.00;0.00;0.00